sensor_id;sensor_type;location;lat;lon;timestamp;temperature;humidity
5901;DHT22;2976;49.764;9.796;2022-10-15T00:00:45;13.20;99.90
5901;DHT22;2976;49.764;9.796;2022-10-15T00:03:11;13.20;99.90
5901;DHT22;2976;49.764;9.796;2022-10-15T00:05:37;13.30;99.90
5901;DHT22;2976;49.764;9.796;2022-10-15T00:08:04;13.30;99.90
5901;DHT22;2976;49.764;9.796;2022-10-15T00:10:30;13.40;99.90
5901;DHT22;2976;49.764;9.796;2022-10-15T00:12:55;13.30;99.90
5901;DHT22;2976;49.764;9.796;2022-10-15T00:15:21;13.40;99.90
5901;DHT22;2976;49.764;9.796;2022-10-15T00:17:47;13.30;99.90
5901;DHT22;2976;49.764;9.796;2022-10-15T00:20:13;13.40;99.90
5901;DHT22;2976;49.764;9.796;2022-10-15T00:22:39;13.30;99.90
5901;DHT22;2976;49.764;9.796;2022-10-15T00:25:05;13.40;99.90
5901;DHT22;2976;49.764;9.796;2022-10-15T00:27:33;13.30;99.90
5901;DHT22;2976;49.764;9.796;2022-10-15T00:29:59;13.30;99.90
5901;DHT22;2976;49.764;9.796;2022-10-15T00:32:25;13.30;99.90
5901;DHT22;2976;49.764;9.796;2022-10-15T00:34:51;13.40;99.90
5901;DHT22;2976;49.764;9.796;2022-10-15T00:37:16;13.40;99.90
5901;DHT22;2976;49.764;9.796;2022-10-15T00:39:42;13.40;99.90
5901;DHT22;2976;49.764;9.796;2022-10-15T00:42:09;13.40;99.90
5901;DHT22;2976;49.764;9.796;2022-10-15T00:47:18;13.50;99.90
5901;DHT22;2976;49.764;9.796;2022-10-15T00:52:22;13.40;99.90
5901;DHT22;2976;49.764;9.796;2022-10-15T00:55:21;13.40;99.90
5901;DHT22;2976;49.764;9.796;2022-10-15T00:57:49;13.50;99.90
5901;DHT22;2976;49.764;9.796;2022-10-15T01:00:16;13.50;99.90
5901;DHT22;2976;49.764;9.796;2022-10-15T01:02:44;13.40;99.90
5901;DHT22;2976;49.764;9.796;2022-10-15T01:05:11;13.40;99.90
5901;DHT22;2976;49.764;9.796;2022-10-15T01:07:37;13.40;99.90
5901;DHT22;2976;49.764;9.796;2022-10-15T01:10:04;13.40;99.90
5901;DHT22;2976;49.764;9.796;2022-10-15T01:15:19;13.40;99.90
5901;DHT22;2976;49.764;9.796;2022-10-15T01:17:54;13.40;99.90
5901;DHT22;2976;49.764;9.796;2022-10-15T01:34:52;13.50;99.90
5901;DHT22;2976;49.764;9.796;2022-10-15T01:39:58;13.40;99.90
5901;DHT22;2976;49.764;9.796;2022-10-15T01:42:37;13.40;99.90
5901;DHT22;2976;49.764;9.796;2022-10-15T01:45:09;13.50;99.90
5901;DHT22;2976;49.764;9.796;2022-10-15T01:47:57;13.50;99.90
5901;DHT22;2976;49.764;9.796;2022-10-15T01:50:25;13.50;99.90
5901;DHT22;2976;49.764;9.796;2022-10-15T01:52:53;13.50;99.90
5901;DHT22;2976;49.764;9.796;2022-10-15T01:55:21;13.40;99.90
5901;DHT22;2976;49.764;9.796;2022-10-15T01:57:48;13.40;99.90
5901;DHT22;2976;49.764;9.796;2022-10-15T02:00:14;13.40;99.90
5901;DHT22;2976;49.764;9.796;2022-10-15T02:02:40;13.50;99.90
5901;DHT22;2976;49.764;9.796;2022-10-15T02:05:55;13.40;99.90
5901;DHT22;2976;49.764;9.796;2022-10-15T02:08:12;13.40;99.90
5901;DHT22;2976;49.764;9.796;2022-10-15T02:11:02;13.40;99.90
5901;DHT22;2976;49.764;9.796;2022-10-15T02:13:59;13.40;99.90
5901;DHT22;2976;49.764;9.796;2022-10-15T02:16:37;13.40;99.90
5901;DHT22;2976;49.764;9.796;2022-10-15T02:19:17;13.40;99.90
5901;DHT22;2976;49.764;9.796;2022-10-15T02:21:46;13.30;99.90
5901;DHT22;2976;49.764;9.796;2022-10-15T02:26:40;13.40;99.90
5901;DHT22;2976;49.764;9.796;2022-10-15T02:29:10;13.40;99.90
5901;DHT22;2976;49.764;9.796;2022-10-15T02:31:39;13.40;99.90
5901;DHT22;2976;49.764;9.796;2022-10-15T02:34:08;13.40;99.90
5901;DHT22;2976;49.764;9.796;2022-10-15T02:36:38;13.40;99.90
5901;DHT22;2976;49.764;9.796;2022-10-15T02:39:04;13.40;99.90
5901;DHT22;2976;49.764;9.796;2022-10-15T02:41:33;13.40;99.90
5901;DHT22;2976;49.764;9.796;2022-10-15T02:43:59;13.40;99.90
5901;DHT22;2976;49.764;9.796;2022-10-15T02:46:25;13.50;99.90
5901;DHT22;2976;49.764;9.796;2022-10-15T02:48:51;13.40;99.90
5901;DHT22;2976;49.764;9.796;2022-10-15T02:51:16;13.40;99.90
5901;DHT22;2976;49.764;9.796;2022-10-15T02:53:42;13.40;99.90
5901;DHT22;2976;49.764;9.796;2022-10-15T02:56:07;13.40;99.90
5901;DHT22;2976;49.764;9.796;2022-10-15T02:58:33;13.50;99.90
5901;DHT22;2976;49.764;9.796;2022-10-15T03:00:59;13.40;99.90
5901;DHT22;2976;49.764;9.796;2022-10-15T03:03:24;13.40;99.90
5901;DHT22;2976;49.764;9.796;2022-10-15T03:05:50;13.50;99.90
5901;DHT22;2976;49.764;9.796;2022-10-15T03:08:15;13.40;99.90
5901;DHT22;2976;49.764;9.796;2022-10-15T03:10:41;13.50;99.90
5901;DHT22;2976;49.764;9.796;2022-10-15T03:13:06;13.40;99.90
5901;DHT22;2976;49.764;9.796;2022-10-15T03:15:32;13.50;99.90
5901;DHT22;2976;49.764;9.796;2022-10-15T03:17:58;13.50;99.90
5901;DHT22;2976;49.764;9.796;2022-10-15T03:20:23;13.50;99.90
5901;DHT22;2976;49.764;9.796;2022-10-15T03:22:49;13.50;99.90
5901;DHT22;2976;49.764;9.796;2022-10-15T03:25:14;13.40;99.90
5901;DHT22;2976;49.764;9.796;2022-10-15T03:27:40;13.50;99.90
5901;DHT22;2976;49.764;9.796;2022-10-15T03:30:06;13.40;99.90
5901;DHT22;2976;49.764;9.796;2022-10-15T03:32:32;13.50;99.90
5901;DHT22;2976;49.764;9.796;2022-10-15T03:34:58;13.40;99.90
5901;DHT22;2976;49.764;9.796;2022-10-15T03:37:23;13.40;99.90
5901;DHT22;2976;49.764;9.796;2022-10-15T03:39:49;13.40;99.90
5901;DHT22;2976;49.764;9.796;2022-10-15T03:42:14;13.50;99.90
5901;DHT22;2976;49.764;9.796;2022-10-15T03:44:40;13.50;99.90
5901;DHT22;2976;49.764;9.796;2022-10-15T03:47:06;13.50;99.90
5901;DHT22;2976;49.764;9.796;2022-10-15T03:49:32;13.40;99.90
5901;DHT22;2976;49.764;9.796;2022-10-15T03:51:57;13.40;99.90
5901;DHT22;2976;49.764;9.796;2022-10-15T03:54:23;13.40;99.90
5901;DHT22;2976;49.764;9.796;2022-10-15T03:56:48;13.40;99.90
5901;DHT22;2976;49.764;9.796;2022-10-15T03:59:14;13.50;99.90
5901;DHT22;2976;49.764;9.796;2022-10-15T04:01:41;13.50;99.90
5901;DHT22;2976;49.764;9.796;2022-10-15T04:04:06;13.50;99.90
5901;DHT22;2976;49.764;9.796;2022-10-15T04:06:32;13.50;99.90
5901;DHT22;2976;49.764;9.796;2022-10-15T04:08:59;13.50;99.90
5901;DHT22;2976;49.764;9.796;2022-10-15T04:11:24;13.50;99.90
5901;DHT22;2976;49.764;9.796;2022-10-15T04:13:50;13.60;99.90
5901;DHT22;2976;49.764;9.796;2022-10-15T04:16:16;13.60;99.90
5901;DHT22;2976;49.764;9.796;2022-10-15T04:18:42;13.60;99.90
5901;DHT22;2976;49.764;9.796;2022-10-15T04:21:08;13.60;99.90
5901;DHT22;2976;49.764;9.796;2022-10-15T04:23:33;13.60;99.90
5901;DHT22;2976;49.764;9.796;2022-10-15T04:25:59;13.60;99.90
5901;DHT22;2976;49.764;9.796;2022-10-15T04:28:25;13.60;99.90
5901;DHT22;2976;49.764;9.796;2022-10-15T04:30:55;13.60;99.90
5901;DHT22;2976;49.764;9.796;2022-10-15T04:33:21;13.60;99.90
5901;DHT22;2976;49.764;9.796;2022-10-15T04:35:46;13.60;99.90
5901;DHT22;2976;49.764;9.796;2022-10-15T04:38:12;13.60;99.90
5901;DHT22;2976;49.764;9.796;2022-10-15T04:40:37;13.50;99.90
5901;DHT22;2976;49.764;9.796;2022-10-15T04:43:05;13.50;99.90
5901;DHT22;2976;49.764;9.796;2022-10-15T04:45:30;13.60;99.90
5901;DHT22;2976;49.764;9.796;2022-10-15T04:47:56;13.60;99.90
5901;DHT22;2976;49.764;9.796;2022-10-15T04:50:21;13.60;99.90
5901;DHT22;2976;49.764;9.796;2022-10-15T04:52:47;13.60;99.90
5901;DHT22;2976;49.764;9.796;2022-10-15T04:55:13;13.60;99.90
5901;DHT22;2976;49.764;9.796;2022-10-15T04:57:38;13.60;99.90
5901;DHT22;2976;49.764;9.796;2022-10-15T05:00:05;13.60;99.90
5901;DHT22;2976;49.764;9.796;2022-10-15T05:02:31;13.60;99.90
5901;DHT22;2976;49.764;9.796;2022-10-15T05:04:57;13.60;99.90
5901;DHT22;2976;49.764;9.796;2022-10-15T05:07:22;13.60;99.90
5901;DHT22;2976;49.764;9.796;2022-10-15T05:09:48;13.60;99.90
5901;DHT22;2976;49.764;9.796;2022-10-15T05:12:13;13.60;99.90
5901;DHT22;2976;49.764;9.796;2022-10-15T05:14:39;13.60;99.90
5901;DHT22;2976;49.764;9.796;2022-10-15T05:17:06;13.60;99.90
5901;DHT22;2976;49.764;9.796;2022-10-15T05:19:31;13.60;99.90
5901;DHT22;2976;49.764;9.796;2022-10-15T05:21:57;13.60;99.90
5901;DHT22;2976;49.764;9.796;2022-10-15T05:24:22;13.60;99.90
5901;DHT22;2976;49.764;9.796;2022-10-15T05:26:48;13.60;99.90
5901;DHT22;2976;49.764;9.796;2022-10-15T05:29:13;13.60;99.90
5901;DHT22;2976;49.764;9.796;2022-10-15T05:31:39;13.60;99.90
5901;DHT22;2976;49.764;9.796;2022-10-15T05:34:06;13.60;99.90
5901;DHT22;2976;49.764;9.796;2022-10-15T05:36:32;13.70;99.90
5901;DHT22;2976;49.764;9.796;2022-10-15T05:39:00;13.70;99.90
5901;DHT22;2976;49.764;9.796;2022-10-15T05:41:27;13.70;99.90
5901;DHT22;2976;49.764;9.796;2022-10-15T05:43:54;13.70;99.90
5901;DHT22;2976;49.764;9.796;2022-10-15T05:46:20;13.70;99.90
5901;DHT22;2976;49.764;9.796;2022-10-15T05:48:56;13.70;99.90
5901;DHT22;2976;49.764;9.796;2022-10-15T05:51:23;13.60;99.90
5901;DHT22;2976;49.764;9.796;2022-10-15T05:53:53;13.60;99.90
5901;DHT22;2976;49.764;9.796;2022-10-15T05:56:19;13.60;99.90
5901;DHT22;2976;49.764;9.796;2022-10-15T05:58:44;13.60;99.90
5901;DHT22;2976;49.764;9.796;2022-10-15T06:01:11;13.60;99.90
5901;DHT22;2976;49.764;9.796;2022-10-15T06:03:38;13.60;99.90
5901;DHT22;2976;49.764;9.796;2022-10-15T06:06:07;13.60;99.90
5901;DHT22;2976;49.764;9.796;2022-10-15T06:08:37;13.70;99.90
5901;DHT22;2976;49.764;9.796;2022-10-15T06:11:03;13.70;99.90
5901;DHT22;2976;49.764;9.796;2022-10-15T06:13:29;13.70;99.90
5901;DHT22;2976;49.764;9.796;2022-10-15T06:15:54;13.70;99.90
5901;DHT22;2976;49.764;9.796;2022-10-15T06:18:20;13.70;99.90
5901;DHT22;2976;49.764;9.796;2022-10-15T06:20:50;13.70;99.90
5901;DHT22;2976;49.764;9.796;2022-10-15T06:23:17;13.80;99.90
5901;DHT22;2976;49.764;9.796;2022-10-15T06:25:42;13.80;99.90
5901;DHT22;2976;49.764;9.796;2022-10-15T06:28:08;13.80;99.90
5901;DHT22;2976;49.764;9.796;2022-10-15T06:30:34;13.90;99.90
5901;DHT22;2976;49.764;9.796;2022-10-15T06:32:59;14.00;99.90
5901;DHT22;2976;49.764;9.796;2022-10-15T06:35:25;14.00;99.90
5901;DHT22;2976;49.764;9.796;2022-10-15T06:37:54;14.00;99.90
5901;DHT22;2976;49.764;9.796;2022-10-15T06:40:20;14.00;99.90
5901;DHT22;2976;49.764;9.796;2022-10-15T06:42:46;14.10;99.90
5901;DHT22;2976;49.764;9.796;2022-10-15T06:45:12;14.10;99.90
5901;DHT22;2976;49.764;9.796;2022-10-15T06:47:41;14.20;99.90
5901;DHT22;2976;49.764;9.796;2022-10-15T06:50:07;14.20;99.90
5901;DHT22;2976;49.764;9.796;2022-10-15T06:52:33;14.20;99.90
5901;DHT22;2976;49.764;9.796;2022-10-15T06:54:58;14.20;99.90
5901;DHT22;2976;49.764;9.796;2022-10-15T06:57:25;14.10;99.90
5901;DHT22;2976;49.764;9.796;2022-10-15T06:59:51;14.20;99.90
5901;DHT22;2976;49.764;9.796;2022-10-15T07:02:17;14.20;99.90
5901;DHT22;2976;49.764;9.796;2022-10-15T07:04:44;14.20;99.90
5901;DHT22;2976;49.764;9.796;2022-10-15T07:07:10;14.20;99.90
5901;DHT22;2976;49.764;9.796;2022-10-15T07:09:35;14.20;99.90
5901;DHT22;2976;49.764;9.796;2022-10-15T07:12:01;14.20;99.90
5901;DHT22;2976;49.764;9.796;2022-10-15T07:14:26;14.20;99.90
5901;DHT22;2976;49.764;9.796;2022-10-15T07:16:52;14.20;99.90
5901;DHT22;2976;49.764;9.796;2022-10-15T07:19:18;14.20;99.90
5901;DHT22;2976;49.764;9.796;2022-10-15T07:21:43;14.20;99.90
5901;DHT22;2976;49.764;9.796;2022-10-15T07:24:09;14.20;99.90
5901;DHT22;2976;49.764;9.796;2022-10-15T07:26:34;14.20;99.90
5901;DHT22;2976;49.764;9.796;2022-10-15T07:29:00;14.20;99.90
5901;DHT22;2976;49.764;9.796;2022-10-15T07:31:26;14.20;99.90
5901;DHT22;2976;49.764;9.796;2022-10-15T07:33:51;14.20;99.90
5901;DHT22;2976;49.764;9.796;2022-10-15T07:36:17;14.20;99.90
5901;DHT22;2976;49.764;9.796;2022-10-15T07:38:45;14.20;99.90
5901;DHT22;2976;49.764;9.796;2022-10-15T07:41:11;14.20;99.90
5901;DHT22;2976;49.764;9.796;2022-10-15T07:43:36;14.30;99.90
5901;DHT22;2976;49.764;9.796;2022-10-15T07:46:03;14.30;99.90
5901;DHT22;2976;49.764;9.796;2022-10-15T07:48:31;14.30;99.90
5901;DHT22;2976;49.764;9.796;2022-10-15T07:51:02;14.30;99.90
5901;DHT22;2976;49.764;9.796;2022-10-15T07:53:29;14.30;99.90
5901;DHT22;2976;49.764;9.796;2022-10-15T07:56:01;14.30;99.90
5901;DHT22;2976;49.764;9.796;2022-10-15T07:58:28;14.30;99.90
5901;DHT22;2976;49.764;9.796;2022-10-15T08:00:58;14.40;99.90
5901;DHT22;2976;49.764;9.796;2022-10-15T08:03:23;14.40;99.90
5901;DHT22;2976;49.764;9.796;2022-10-15T08:05:49;14.40;99.90
5901;DHT22;2976;49.764;9.796;2022-10-15T08:08:17;14.50;99.90
5901;DHT22;2976;49.764;9.796;2022-10-15T08:10:44;14.50;99.90
5901;DHT22;2976;49.764;9.796;2022-10-15T08:13:10;14.50;99.90
5901;DHT22;2976;49.764;9.796;2022-10-15T08:15:38;14.50;99.90
5901;DHT22;2976;49.764;9.796;2022-10-15T08:18:04;14.50;99.90
5901;DHT22;2976;49.764;9.796;2022-10-15T08:20:29;14.50;99.90
5901;DHT22;2976;49.764;9.796;2022-10-15T08:22:55;14.50;99.90
5901;DHT22;2976;49.764;9.796;2022-10-15T08:25:21;14.60;99.90
5901;DHT22;2976;49.764;9.796;2022-10-15T08:27:46;14.60;99.90
5901;DHT22;2976;49.764;9.796;2022-10-15T08:30:12;14.60;99.90
5901;DHT22;2976;49.764;9.796;2022-10-15T08:32:37;14.70;99.90
5901;DHT22;2976;49.764;9.796;2022-10-15T08:35:03;14.80;99.90
5901;DHT22;2976;49.764;9.796;2022-10-15T08:37:28;14.90;99.90
5901;DHT22;2976;49.764;9.796;2022-10-15T08:39:54;15.00;99.90
5901;DHT22;2976;49.764;9.796;2022-10-15T08:42:26;15.10;99.90
5901;DHT22;2976;49.764;9.796;2022-10-15T08:45:01;15.30;99.90
5901;DHT22;2976;49.764;9.796;2022-10-15T08:47:37;15.40;99.90
5901;DHT22;2976;49.764;9.796;2022-10-15T08:52:52;15.60;99.90
5901;DHT22;2976;49.764;9.796;2022-10-15T08:55:20;15.70;99.90
5901;DHT22;2976;49.764;9.796;2022-10-15T08:58:12;15.80;99.90
5901;DHT22;2976;49.764;9.796;2022-10-15T09:00:49;16.10;99.90
5901;DHT22;2976;49.764;9.796;2022-10-15T09:08:43;16.40;99.90
5901;DHT22;2976;49.764;9.796;2022-10-15T09:11:19;16.40;99.90
5901;DHT22;2976;49.764;9.796;2022-10-15T09:13:47;16.30;99.90
5901;DHT22;2976;49.764;9.796;2022-10-15T09:18:41;16.40;99.90
5901;DHT22;2976;49.764;9.796;2022-10-15T09:21:09;16.50;99.90
5901;DHT22;2976;49.764;9.796;2022-10-15T09:23:36;16.50;99.90
5901;DHT22;2976;49.764;9.796;2022-10-15T09:29:00;16.70;99.90
5901;DHT22;2976;49.764;9.796;2022-10-15T09:31:32;16.70;99.90
5901;DHT22;2976;49.764;9.796;2022-10-15T09:34:10;16.80;99.90
5901;DHT22;2976;49.764;9.796;2022-10-15T09:36:55;16.90;99.90
5901;DHT22;2976;49.764;9.796;2022-10-15T09:39:39;17.10;99.90
5901;DHT22;2976;49.764;9.796;2022-10-15T09:45:10;17.10;99.90
5901;DHT22;2976;49.764;9.796;2022-10-15T09:47:39;17.20;99.90
5901;DHT22;2976;49.764;9.796;2022-10-15T09:50:07;17.20;99.90
5901;DHT22;2976;49.764;9.796;2022-10-15T09:53:08;17.40;99.90
5901;DHT22;2976;49.764;9.796;2022-10-15T09:58:32;17.60;99.90
5901;DHT22;2976;49.764;9.796;2022-10-15T10:01:04;17.70;99.90
5901;DHT22;2976;49.764;9.796;2022-10-15T10:03:32;18.00;99.90
5901;DHT22;2976;49.764;9.796;2022-10-15T10:06:12;18.20;99.90
5901;DHT22;2976;49.764;9.796;2022-10-15T10:08:46;18.40;99.90
5901;DHT22;2976;49.764;9.796;2022-10-15T10:11:13;18.70;99.90
5901;DHT22;2976;49.764;9.796;2022-10-15T10:13:50;19.00;99.90
5901;DHT22;2976;49.764;9.796;2022-10-15T10:16:18;19.00;99.90
5901;DHT22;2976;49.764;9.796;2022-10-15T10:21:34;19.20;99.90
5901;DHT22;2976;49.764;9.796;2022-10-15T10:24:27;19.20;99.90
5901;DHT22;2976;49.764;9.796;2022-10-15T10:26:55;18.80;99.90
5901;DHT22;2976;49.764;9.796;2022-10-15T10:29:22;18.50;99.90
5901;DHT22;2976;49.764;9.796;2022-10-15T10:31:48;18.30;99.90
5901;DHT22;2976;49.764;9.796;2022-10-15T10:34:23;18.50;99.90
5901;DHT22;2976;49.764;9.796;2022-10-15T10:36:51;18.30;99.90
5901;DHT22;2976;49.764;9.796;2022-10-15T10:39:26;18.30;99.90
5901;DHT22;2976;49.764;9.796;2022-10-15T10:42:06;18.00;99.90
5901;DHT22;2976;49.764;9.796;2022-10-15T10:49:34;17.90;99.90
5901;DHT22;2976;49.764;9.796;2022-10-15T10:52:00;17.90;99.90
5901;DHT22;2976;49.764;9.796;2022-10-15T10:54:27;18.00;99.90
5901;DHT22;2976;49.764;9.796;2022-10-15T10:56:55;18.30;99.90
5901;DHT22;2976;49.764;9.796;2022-10-15T10:59:34;18.20;99.90
5901;DHT22;2976;49.764;9.796;2022-10-15T11:02:00;18.10;99.90
5901;DHT22;2976;49.764;9.796;2022-10-15T11:04:32;17.90;99.90
5901;DHT22;2976;49.764;9.796;2022-10-15T11:09:55;17.70;99.90
5901;DHT22;2976;49.764;9.796;2022-10-15T11:20:33;17.60;99.90
5901;DHT22;2976;49.764;9.796;2022-10-15T11:32:00;17.60;99.90
5901;DHT22;2976;49.764;9.796;2022-10-15T11:48:21;17.30;99.90
5901;DHT22;2976;49.764;9.796;2022-10-15T11:50:59;17.30;99.90
5901;DHT22;2976;49.764;9.796;2022-10-15T11:56:15;17.40;99.90
5901;DHT22;2976;49.764;9.796;2022-10-15T11:59:23;17.30;99.90
5901;DHT22;2976;49.764;9.796;2022-10-15T12:02:28;17.50;99.90
5901;DHT22;2976;49.764;9.796;2022-10-15T12:04:52;17.60;99.90
5901;DHT22;2976;49.764;9.796;2022-10-15T12:07:29;17.70;99.90
5901;DHT22;2976;49.764;9.796;2022-10-15T12:10:16;17.70;99.90
5901;DHT22;2976;49.764;9.796;2022-10-15T12:12:58;17.90;99.90
5901;DHT22;2976;49.764;9.796;2022-10-15T12:15:38;18.00;99.90
5901;DHT22;2976;49.764;9.796;2022-10-15T12:20:52;18.10;99.90
5901;DHT22;2976;49.764;9.796;2022-10-15T12:23:39;18.00;99.90
5901;DHT22;2976;49.764;9.796;2022-10-15T12:28:54;18.00;99.90
5901;DHT22;2976;49.764;9.796;2022-10-15T12:31:20;18.30;99.90
5901;DHT22;2976;49.764;9.796;2022-10-15T12:33:50;18.50;99.90
5901;DHT22;2976;49.764;9.796;2022-10-15T12:36:29;18.40;99.90
5901;DHT22;2976;49.764;9.796;2022-10-15T12:39:14;18.60;99.90
5901;DHT22;2976;49.764;9.796;2022-10-15T12:41:46;18.40;99.90
5901;DHT22;2976;49.764;9.796;2022-10-15T12:46:51;18.20;99.90
5901;DHT22;2976;49.764;9.796;2022-10-15T12:51:52;18.20;99.90
5901;DHT22;2976;49.764;9.796;2022-10-15T13:00:00;18.40;99.90
5901;DHT22;2976;49.764;9.796;2022-10-15T13:02:33;18.40;99.90
5901;DHT22;2976;49.764;9.796;2022-10-15T13:05:00;18.30;99.90
5901;DHT22;2976;49.764;9.796;2022-10-15T13:07:26;18.20;99.90
5901;DHT22;2976;49.764;9.796;2022-10-15T13:09:51;18.00;99.90
5901;DHT22;2976;49.764;9.796;2022-10-15T13:12:22;18.00;99.90
5901;DHT22;2976;49.764;9.796;2022-10-15T13:14:55;17.90;99.90
5901;DHT22;2976;49.764;9.796;2022-10-15T13:17:22;17.80;99.90
5901;DHT22;2976;49.764;9.796;2022-10-15T13:20:04;17.80;99.90
5901;DHT22;2976;49.764;9.796;2022-10-15T13:22:31;18.00;99.90
5901;DHT22;2976;49.764;9.796;2022-10-15T13:24:57;18.10;99.90
5901;DHT22;2976;49.764;9.796;2022-10-15T13:27:36;18.20;99.90
5901;DHT22;2976;49.764;9.796;2022-10-15T13:30:11;18.20;99.90
5901;DHT22;2976;49.764;9.796;2022-10-15T13:32:51;18.20;99.90
5901;DHT22;2976;49.764;9.796;2022-10-15T13:35:23;18.20;99.90
5901;DHT22;2976;49.764;9.796;2022-10-15T13:37:50;18.10;99.90
5901;DHT22;2976;49.764;9.796;2022-10-15T13:40:27;17.90;99.90
5901;DHT22;2976;49.764;9.796;2022-10-15T13:42:59;17.80;99.90
5901;DHT22;2976;49.764;9.796;2022-10-15T13:45:26;17.90;99.90
5901;DHT22;2976;49.764;9.796;2022-10-15T13:47:53;18.10;99.90
5901;DHT22;2976;49.764;9.796;2022-10-15T13:52:58;18.10;99.90
5901;DHT22;2976;49.764;9.796;2022-10-15T13:55:27;18.00;99.90
5901;DHT22;2976;49.764;9.796;2022-10-15T13:58:06;18.00;99.90
5901;DHT22;2976;49.764;9.796;2022-10-15T14:00:39;17.80;99.90
5901;DHT22;2976;49.764;9.796;2022-10-15T14:03:20;17.70;99.90
5901;DHT22;2976;49.764;9.796;2022-10-15T14:05:49;17.60;99.90
5901;DHT22;2976;49.764;9.796;2022-10-15T14:08:32;17.60;99.90
5901;DHT22;2976;49.764;9.796;2022-10-15T14:10:58;17.50;99.90
5901;DHT22;2976;49.764;9.796;2022-10-15T14:13:25;17.50;99.90
5901;DHT22;2976;49.764;9.796;2022-10-15T14:15:59;17.40;99.90
5901;DHT22;2976;49.764;9.796;2022-10-15T14:18:34;17.40;99.90
5901;DHT22;2976;49.764;9.796;2022-10-15T14:21:00;17.30;99.90
5901;DHT22;2976;49.764;9.796;2022-10-15T14:23:27;17.30;99.90
5901;DHT22;2976;49.764;9.796;2022-10-15T14:26:00;17.20;99.90
5901;DHT22;2976;49.764;9.796;2022-10-15T14:28:27;17.30;99.90
5901;DHT22;2976;49.764;9.796;2022-10-15T14:30:54;17.20;99.90
5901;DHT22;2976;49.764;9.796;2022-10-15T14:38:39;17.00;99.90
5901;DHT22;2976;49.764;9.796;2022-10-15T14:41:22;17.00;99.90
5901;DHT22;2976;49.764;9.796;2022-10-15T14:44:00;17.00;99.90
5901;DHT22;2976;49.764;9.796;2022-10-15T14:46:36;17.00;99.90
5901;DHT22;2976;49.764;9.796;2022-10-15T14:49:03;16.90;99.90
5901;DHT22;2976;49.764;9.796;2022-10-15T14:51:39;16.90;99.90
5901;DHT22;2976;49.764;9.796;2022-10-15T14:54:04;16.90;99.90
5901;DHT22;2976;49.764;9.796;2022-10-15T14:56:32;16.90;99.90
5901;DHT22;2976;49.764;9.796;2022-10-15T14:58:58;16.80;99.90
5901;DHT22;2976;49.764;9.796;2022-10-15T15:01:25;16.70;99.90
5901;DHT22;2976;49.764;9.796;2022-10-15T15:03:53;16.70;99.90
5901;DHT22;2976;49.764;9.796;2022-10-15T15:06:19;16.70;99.90
5901;DHT22;2976;49.764;9.796;2022-10-15T15:08:46;16.60;99.90
5901;DHT22;2976;49.764;9.796;2022-10-15T15:11:20;16.60;99.90
5901;DHT22;2976;49.764;9.796;2022-10-15T15:13:47;16.50;99.90
5901;DHT22;2976;49.764;9.796;2022-10-15T15:16:15;16.50;99.90
5901;DHT22;2976;49.764;9.796;2022-10-15T15:18:41;16.50;99.90
5901;DHT22;2976;49.764;9.796;2022-10-15T15:21:12;16.40;99.90
5901;DHT22;2976;49.764;9.796;2022-10-15T15:23:39;16.40;99.90
5901;DHT22;2976;49.764;9.796;2022-10-15T15:26:05;16.40;99.90
5901;DHT22;2976;49.764;9.796;2022-10-15T15:28:30;16.40;99.90
5901;DHT22;2976;49.764;9.796;2022-10-15T15:31:01;16.50;99.90
5901;DHT22;2976;49.764;9.796;2022-10-15T15:33:29;16.40;99.90
5901;DHT22;2976;49.764;9.796;2022-10-15T15:38:25;16.40;99.90
5901;DHT22;2976;49.764;9.796;2022-10-15T15:41:00;16.50;99.90
5901;DHT22;2976;49.764;9.796;2022-10-15T15:43:26;16.40;99.90
5901;DHT22;2976;49.764;9.796;2022-10-15T15:45:52;16.30;99.90
5901;DHT22;2976;49.764;9.796;2022-10-15T15:48:17;16.30;99.90
5901;DHT22;2976;49.764;9.796;2022-10-15T15:50:43;16.30;99.90
5901;DHT22;2976;49.764;9.796;2022-10-15T15:53:11;16.30;99.90
5901;DHT22;2976;49.764;9.796;2022-10-15T15:55:36;16.30;99.90
5901;DHT22;2976;49.764;9.796;2022-10-15T15:58:02;16.30;99.90
5901;DHT22;2976;49.764;9.796;2022-10-15T16:00:27;16.20;99.90
5901;DHT22;2976;49.764;9.796;2022-10-15T16:02:53;16.20;99.90
5901;DHT22;2976;49.764;9.796;2022-10-15T16:05:18;16.10;99.90
5901;DHT22;2976;49.764;9.796;2022-10-15T16:07:44;16.10;99.90
5901;DHT22;2976;49.764;9.796;2022-10-15T16:10:10;16.20;99.90
5901;DHT22;2976;49.764;9.796;2022-10-15T16:12:38;16.10;99.90
5901;DHT22;2976;49.764;9.796;2022-10-15T16:15:04;16.10;99.90
5901;DHT22;2976;49.764;9.796;2022-10-15T16:17:30;16.10;99.90
5901;DHT22;2976;49.764;9.796;2022-10-15T16:19:56;16.10;99.90
5901;DHT22;2976;49.764;9.796;2022-10-15T16:22:21;16.10;99.90
5901;DHT22;2976;49.764;9.796;2022-10-15T16:24:47;16.10;99.90
5901;DHT22;2976;49.764;9.796;2022-10-15T16:27:12;16.10;99.90
5901;DHT22;2976;49.764;9.796;2022-10-15T16:29:38;16.10;99.90
5901;DHT22;2976;49.764;9.796;2022-10-15T16:32:03;16.10;99.90
5901;DHT22;2976;49.764;9.796;2022-10-15T16:34:29;16.00;99.90
5901;DHT22;2976;49.764;9.796;2022-10-15T16:36:55;16.00;99.90
5901;DHT22;2976;49.764;9.796;2022-10-15T16:39:21;16.10;99.90
5901;DHT22;2976;49.764;9.796;2022-10-15T16:41:47;16.10;99.90
5901;DHT22;2976;49.764;9.796;2022-10-15T16:44:13;16.00;99.90
5901;DHT22;2976;49.764;9.796;2022-10-15T16:46:38;16.00;99.90
5901;DHT22;2976;49.764;9.796;2022-10-15T16:49:04;16.00;99.90
5901;DHT22;2976;49.764;9.796;2022-10-15T16:51:30;16.00;99.90
5901;DHT22;2976;49.764;9.796;2022-10-15T16:53:57;16.00;99.90
5901;DHT22;2976;49.764;9.796;2022-10-15T16:56:26;16.00;99.90
5901;DHT22;2976;49.764;9.796;2022-10-15T16:58:52;16.00;99.90
5901;DHT22;2976;49.764;9.796;2022-10-15T17:01:20;16.00;99.90
5901;DHT22;2976;49.764;9.796;2022-10-15T17:03:47;16.00;99.90
5901;DHT22;2976;49.764;9.796;2022-10-15T17:06:16;15.90;99.90
5901;DHT22;2976;49.764;9.796;2022-10-15T17:08:47;16.00;99.90
5901;DHT22;2976;49.764;9.796;2022-10-15T17:13:44;15.90;99.90
5901;DHT22;2976;49.764;9.796;2022-10-15T17:16:21;15.90;99.90
5901;DHT22;2976;49.764;9.796;2022-10-15T17:18:47;15.80;99.90
5901;DHT22;2976;49.764;9.796;2022-10-15T17:21:17;15.80;99.90
5901;DHT22;2976;49.764;9.796;2022-10-15T17:23:44;15.80;99.90
5901;DHT22;2976;49.764;9.796;2022-10-15T17:26:15;15.80;99.90
5901;DHT22;2976;49.764;9.796;2022-10-15T17:28:44;15.80;99.90
5901;DHT22;2976;49.764;9.796;2022-10-15T17:31:13;15.80;99.90
5901;DHT22;2976;49.764;9.796;2022-10-15T17:33:39;15.80;99.90
5901;DHT22;2976;49.764;9.796;2022-10-15T17:36:13;15.80;99.90
5901;DHT22;2976;49.764;9.796;2022-10-15T17:38:39;15.80;99.90
5901;DHT22;2976;49.764;9.796;2022-10-15T17:41:13;15.80;99.90
5901;DHT22;2976;49.764;9.796;2022-10-15T17:43:39;15.80;99.90
5901;DHT22;2976;49.764;9.796;2022-10-15T17:46:09;15.70;99.90
5901;DHT22;2976;49.764;9.796;2022-10-15T17:48:35;15.70;99.90
5901;DHT22;2976;49.764;9.796;2022-10-15T17:51:03;15.70;99.90
5901;DHT22;2976;49.764;9.796;2022-10-15T17:53:30;15.60;99.90
5901;DHT22;2976;49.764;9.796;2022-10-15T17:55:56;15.60;99.90
5901;DHT22;2976;49.764;9.796;2022-10-15T17:58:23;15.60;99.90
5901;DHT22;2976;49.764;9.796;2022-10-15T18:00:56;15.60;99.90
5901;DHT22;2976;49.764;9.796;2022-10-15T18:03:23;15.60;99.90
5901;DHT22;2976;49.764;9.796;2022-10-15T18:05:49;15.70;99.90
5901;DHT22;2976;49.764;9.796;2022-10-15T18:08:15;15.70;99.90
5901;DHT22;2976;49.764;9.796;2022-10-15T18:10:41;15.70;99.90
5901;DHT22;2976;49.764;9.796;2022-10-15T18:13:07;15.70;99.90